Time;durP1;ratioP1;P1;durP2;ratioP2;P2;SDS_P1;SDS_P2;PMS_P1;PMS_P2;Temp;Humidity;BMP_temperature;BMP_pressure;BME280_temperature;BME280_humidity;BME280_pressure;Samples;Min_cycle;Max_cycle;Signal;HPM_P1;HPM_P2
2022/01/21 00:01:07;;;;;;;2.23;0.73;;;-0.80;99.90;;;;;;5043852;28;20207;-43
2022/01/21 00:03:34;;;;;;;4.10;0.80;;;-0.80;99.90;;;;;;5039017;28;20219;-45
2022/01/21 00:06:01;;;;;;;4.23;1.37;;;-0.80;99.90;;;;;;5044510;28;20228;-42
2022/01/21 00:08:28;;;;;;;1.93;1.10;;;-0.80;99.90;;;;;;5044063;28;20187;-42
2022/01/21 00:10:55;;;;;;;3.63;1.10;;;-0.80;99.90;;;;;;5038221;28;20207;-44
2022/01/21 00:13:25;;;;;;;1.23;0.77;;;-0.90;99.90;;;;;;5039490;28;20315;-44
2022/01/21 00:15:52;;;;;;;8.23;0.90;;;-0.90;99.90;;;;;;5046159;28;20223;-42
2022/01/21 00:18:20;;;;;;;3.07;0.60;;;-0.90;99.90;;;;;;5038377;28;20611;-41
2022/01/21 00:31:45;;;;;;;6.67;0.80;;;-0.80;99.90;;;;;;5054007;28;20203;-43
2022/01/21 00:34:13;;;;;;;2.30;0.90;;;-0.80;99.90;;;;;;5061064;28;20195;-43
2022/01/21 00:36:40;;;;;;;3.70;0.90;;;-0.80;99.90;;;;;;5057511;28;20751;-42
2022/01/21 00:39:06;;;;;;;1.03;0.80;;;-0.70;99.90;;;;;;5045976;28;20203;-44
2022/01/21 00:41:39;;;;;;;4.67;1.10;;;-0.70;99.90;;;;;;5034107;28;20199;-47
2022/01/21 00:44:06;;;;;;;5.20;1.17;;;-0.70;99.90;;;;;;5045753;28;20627;-42
2022/01/21 00:46:33;;;;;;;3.27;1.00;;;-0.70;99.90;;;;;;5048501;28;20935;-42
2022/01/21 00:49:01;;;;;;;4.00;0.90;;;-0.60;99.90;;;;;;5061628;28;20556;-46
2022/01/21 00:51:30;;;;;;;2.83;0.67;;;-0.60;99.90;;;;;;5057478;28;20307;-44
2022/01/21 00:53:57;;;;;;;1.80;0.83;;;-0.60;99.90;;;;;;5064983;28;20509;-41
2022/01/21 00:56:24;;;;;;;3.40;0.77;;;-0.50;99.90;;;;;;5050261;28;20225;-43
2022/01/21 00:58:51;;;;;;;2.33;0.70;;;-0.50;99.90;;;;;;5050269;28;20218;-42
2022/01/21 01:01:17;;;;;;;2.67;1.20;;;-0.50;99.90;;;;;;5049012;28;20216;-42
2022/01/21 01:03:44;;;;;;;3.97;0.70;;;-0.50;99.90;;;;;;5063550;28;20540;-45
2022/01/21 01:06:11;;;;;;;4.13;0.97;;;-0.50;99.90;;;;;;5063944;28;20219;-41
2022/01/21 01:08:41;;;;;;;1.00;0.80;;;-0.50;99.90;;;;;;5053977;28;20820;-44
2022/01/21 01:11:20;;;;;;;5.03;0.90;;;-0.50;99.90;;;;;;5048004;28;20208;-42
2022/01/21 01:22:01;;;;;;;2.07;0.83;;;-0.50;99.90;;;;;;5062153;28;20203;-44
2022/01/21 01:29:59;;;;;;;2.80;1.20;;;-0.50;99.90;;;;;;5051317;28;20201;-46
2022/01/21 01:32:28;;;;;;;4.67;1.10;;;-0.50;99.90;;;;;;5039935;28;20257;-41
2022/01/21 01:34:55;;;;;;;5.43;1.40;;;-0.60;99.90;;;;;;5043949;28;20234;-42
2022/01/21 01:37:35;;;;;;;3.07;1.03;;;-0.60;99.90;;;;;;5041767;28;20198;-41
2022/01/21 01:40:17;;;;;;;4.80;1.50;;;-0.60;99.90;;;;;;5055862;28;20207;-43
2022/01/21 01:49:22;;;;;;;7.57;1.13;;;-0.60;99.90;;;;;;5034357;28;20622;-44
2022/01/21 01:51:22;;;;;;;1.47;1.10;;;-0.70;99.90;;;;;;5061478;28;20199;-42
2022/01/21 01:53:52;;;;;;;8.10;1.13;;;-0.70;99.90;;;;;;5062357;28;20199;-42
2022/01/21 01:56:25;;;;;;;5.23;1.30;;;-0.70;99.90;;;;;;5061489;28;20687;-42
2022/01/21 01:58:52;;;;;;;4.33;1.07;;;-0.70;99.90;;;;;;5043532;28;20561;-46
2022/01/21 02:01:19;;;;;;;2.13;0.90;;;-0.70;99.90;;;;;;5038604;28;20219;-43
2022/01/21 02:03:45;;;;;;;4.90;1.10;;;-0.70;99.90;;;;;;5058233;28;20378;-42
2022/01/21 02:06:12;;;;;;;4.20;1.57;;;-0.70;99.90;;;;;;5062882;28;20219;-42
2022/01/21 02:08:41;;;;;;;5.00;1.40;;;-0.80;99.90;;;;;;5048623;28;20192;-43
2022/01/21 02:11:08;;;;;;;5.77;1.17;;;-0.70;99.90;;;;;;5041513;28;20226;-41
2022/01/21 02:13:42;;;;;;;5.07;1.03;;;-0.80;99.90;;;;;;5040127;28;20302;-41
2022/01/21 02:16:17;;;;;;;7.43;1.17;;;-0.80;99.90;;;;;;5052803;28;20215;-47
2022/01/21 02:21:34;;;;;;;6.67;1.33;;;-0.80;99.90;;;;;;5044091;28;20546;-41
2022/01/21 02:24:04;;;;;;;5.60;0.93;;;-0.70;99.90;;;;;;5040163;28;20861;-43
2022/01/21 02:26:32;;;;;;;4.67;1.77;;;-0.70;99.90;;;;;;5050454;28;20278;-42
2022/01/21 02:29:01;;;;;;;6.53;1.43;;;-0.70;99.90;;;;;;5035992;28;20287;-41
2022/01/21 02:31:28;;;;;;;9.30;1.70;;;-0.70;99.90;;;;;;5048521;28;20203;-42
2022/01/21 02:33:56;;;;;;;8.63;1.37;;;-0.70;99.90;;;;;;5040064;28;20605;-44
2022/01/21 02:36:23;;;;;;;9.83;1.17;;;-0.70;99.90;;;;;;5042271;28;20334;-42
2022/01/21 02:38:51;;;;;;;6.20;1.83;;;-0.70;99.90;;;;;;5042123;28;20318;-41
2022/01/21 02:41:18;;;;;;;7.13;1.37;;;-0.70;99.90;;;;;;5040147;28;20805;-41
2022/01/21 02:43:45;;;;;;;5.13;1.40;;;-0.70;99.90;;;;;;5044177;28;20211;-44
2022/01/21 02:46:14;;;;;;;3.40;1.13;;;-0.70;99.90;;;;;;5035780;28;20231;-41
2022/01/21 02:48:41;;;;;;;13.23;1.90;;;-0.70;99.90;;;;;;5049205;28;20200;-42
2022/01/21 02:51:10;;;;;;;6.90;1.87;;;-0.70;99.90;;;;;;5043267;28;20298;-41
2022/01/21 02:54:03;;;;;;;8.60;2.53;;;-0.80;99.90;;;;;;5063178;28;20241;-43
2022/01/21 02:56:29;;;;;;;6.03;1.10;;;-0.80;99.90;;;;;;5054658;28;20291;-42
2022/01/21 02:58:57;;;;;;;5.30;1.40;;;-0.80;99.90;;;;;;5044498;28;20212;-42
2022/01/21 03:01:25;;;;;;;7.53;1.50;;;-0.80;99.90;;;;;;5035271;28;20362;-41
2022/01/21 03:03:52;;;;;;;6.53;1.30;;;-0.90;99.90;;;;;;5043330;28;20224;-41
2022/01/21 03:06:22;;;;;;;9.27;1.67;;;-0.90;99.90;;;;;;5036888;28;20289;-42
2022/01/21 03:08:52;;;;;;;6.17;1.40;;;-0.90;99.90;;;;;;5041546;28;20290;-41
2022/01/21 03:11:20;;;;;;;3.43;1.13;;;-0.90;99.90;;;;;;5039725;28;20203;-44
2022/01/21 03:13:48;;;;;;;5.63;1.57;;;-0.90;99.90;;;;;;5041966;28;20657;-40
2022/01/21 03:16:15;;;;;;;8.70;1.43;;;-0.80;99.90;;;;;;5025944;28;20224;-40
2022/01/21 03:18:42;;;;;;;7.47;1.43;;;-0.80;99.90;;;;;;5053019;28;20201;-42
2022/01/21 03:21:15;;;;;;;7.27;1.50;;;-0.80;99.90;;;;;;5036077;28;20215;-41
2022/01/21 03:23:46;;;;;;;5.27;1.50;;;-0.70;99.90;;;;;;5045789;28;20220;-42
2022/01/21 03:26:17;;;;;;;6.33;1.80;;;-0.70;99.90;;;;;;5041272;28;20678;-40
2022/01/21 03:28:51;;;;;;;9.63;1.40;;;-0.60;99.90;;;;;;5052420;28;20206;-40
2022/01/21 03:31:19;;;;;;;5.57;1.33;;;-0.60;99.90;;;;;;5039284;28;20200;-40
2022/01/21 03:33:47;;;;;;;4.60;1.70;;;-0.60;99.90;;;;;;5040147;28;20229;-39
2022/01/21 03:36:14;;;;;;;8.10;1.83;;;-0.60;99.90;;;;;;5045093;28;20220;-42
2022/01/21 03:38:41;;;;;;;6.43;1.90;;;-0.50;99.90;;;;;;5048701;28;20203;-40
2022/01/21 03:41:10;;;;;;;8.57;1.50;;;-0.50;99.90;;;;;;5056621;28;20207;-39
2022/01/21 03:43:38;;;;;;;3.77;0.93;;;-0.50;99.90;;;;;;5060831;28;20200;-41
2022/01/21 03:46:08;;;;;;;5.23;1.50;;;-0.40;99.90;;;;;;5056653;28;20223;-41
2022/01/21 03:48:36;;;;;;;11.73;2.00;;;-0.40;99.90;;;;;;5042432;28;20216;-39
2022/01/21 03:51:03;;;;;;;5.63;1.47;;;-0.40;99.90;;;;;;5048862;28;20576;-41
2022/01/21 03:53:30;;;;;;;3.43;1.30;;;-0.30;99.90;;;;;;5037669;28;20210;-41
2022/01/21 03:55:57;;;;;;;5.13;1.40;;;-0.30;99.90;;;;;;5042243;28;20216;-40
2022/01/21 03:58:24;;;;;;;4.93;1.70;;;-0.20;99.90;;;;;;5041554;28;20221;-42
2022/01/21 04:00:53;;;;;;;3.77;1.17;;;-0.20;99.90;;;;;;5040916;28;20228;-41
2022/01/21 04:03:24;;;;;;;8.20;1.47;;;-0.10;99.90;;;;;;5027816;28;20324;-41
2022/01/21 04:05:52;;;;;;;7.80;1.67;;;0.00;99.90;;;;;;5045654;28;20245;-42
2022/01/21 04:08:20;;;;;;;11.20;1.83;;;0.10;99.90;;;;;;5035783;28;20497;-43
2022/01/21 04:10:59;;;;;;;13.67;2.00;;;0.10;99.90;;;;;;5039344;28;20210;-45
2022/01/21 04:13:26;;;;;;;6.70;1.87;;;0.20;99.90;;;;;;5040926;28;20213;-41
2022/01/21 04:16:00;;;;;;;6.40;1.50;;;0.30;99.90;;;;;;5033377;28;20218;-41
2022/01/21 04:18:32;;;;;;;10.97;2.37;;;0.30;99.90;;;;;;5038695;28;20232;-41
2022/01/21 04:21:01;;;;;;;3.30;1.60;;;0.40;99.90;;;;;;5052714;28;20259;-45
2022/01/21 04:23:30;;;;;;;10.73;2.53;;;0.50;99.90;;;;;;5038169;28;20213;-40
2022/01/21 04:25:57;;;;;;;8.23;2.13;;;0.50;99.90;;;;;;5046263;28;20225;-41
2022/01/21 04:28:24;;;;;;;5.33;1.30;;;0.60;99.90;;;;;;5048419;28;20205;-42
2022/01/21 04:30:51;;;;;;;5.70;1.67;;;0.60;99.90;;;;;;5044197;28;20725;-43
2022/01/21 04:33:25;;;;;;;9.53;1.63;;;0.60;99.90;;;;;;5042767;28;20196;-41
2022/01/21 04:36:01;;;;;;;8.60;2.30;;;0.60;99.90;;;;;;5038021;28;20319;-42
2022/01/21 04:38:29;;;;;;;12.33;2.13;;;0.60;99.90;;;;;;5040163;28;20578;-43
2022/01/21 04:41:03;;;;;;;9.37;1.80;;;0.60;99.90;;;;;;5045343;28;20207;-41
2022/01/21 04:48:58;;;;;;;11.70;1.60;;;0.60;99.90;;;;;;5045031;28;20213;-42
2022/01/21 04:51:29;;;;;;;13.07;2.07;;;0.60;99.90;;;;;;5034375;28;20297;-41
2022/01/21 04:53:57;;;;;;;12.33;2.13;;;0.60;99.90;;;;;;5052816;28;20213;-42
2022/01/21 04:56:28;;;;;;;8.73;2.03;;;0.60;99.90;;;;;;5041232;28;20582;-42
2022/01/21 04:58:56;;;;;;;12.27;2.10;;;0.60;99.90;;;;;;5052898;28;20216;-42
2022/01/21 05:01:23;;;;;;;13.03;1.97;;;0.70;99.90;;;;;;5042304;28;20209;-41
2022/01/21 05:03:50;;;;;;;10.93;1.60;;;0.70;99.90;;;;;;5052237;28;20760;-42
2022/01/21 05:06:17;;;;;;;10.90;2.40;;;0.70;99.90;;;;;;5034933;28;20237;-41
2022/01/21 05:08:50;;;;;;;8.87;1.77;;;0.70;99.90;;;;;;5045919;28;20220;-43
2022/01/21 05:11:17;;;;;;;5.87;1.90;;;0.70;99.90;;;;;;5040607;28;20213;-43
2022/01/21 05:13:54;;;;;;;8.13;1.30;;;0.80;99.90;;;;;;5045019;28;20955;-41
2022/01/21 05:16:32;;;;;;;12.73;1.83;;;0.80;99.90;;;;;;5056027;28;20752;-41
2022/01/21 05:19:05;;;;;;;8.83;1.90;;;0.80;99.90;;;;;;5046671;28;20202;-41
2022/01/21 05:21:46;;;;;;;8.63;1.67;;;0.90;99.90;;;;;;5032224;28;20801;-45
2022/01/21 05:24:20;;;;;;;7.87;2.10;;;0.90;99.90;;;;;;5055994;28;20213;-43
2022/01/21 05:26:53;;;;;;;5.17;1.00;;;1.00;99.90;;;;;;5040722;28;20908;-42
2022/01/21 05:29:22;;;;;;;9.13;1.63;;;1.00;99.90;;;;;;5042735;28;20675;-41
2022/01/21 05:31:55;;;;;;;10.73;1.60;;;1.10;99.90;;;;;;5064818;28;20292;-41
2022/01/21 05:34:42;;;;;;;6.63;1.53;;;1.10;99.90;;;;;;5043367;28;20226;-41
2022/01/21 05:37:15;;;;;;;6.73;1.67;;;1.10;99.90;;;;;;5036474;28;20206;-41
2022/01/21 05:40:02;;;;;;;10.17;1.33;;;1.10;99.90;;;;;;5051405;28;20222;-41
2022/01/21 05:42:47;;;;;;;8.27;1.20;;;1.10;99.90;;;;;;5040401;28;20895;-42
2022/01/21 05:48:36;;;;;;;14.03;2.40;;;1.10;99.90;;;;;;5041306;28;20209;-40
2022/01/21 05:51:22;;;;;;;13.07;2.20;;;1.10;99.90;;;;;;5036947;28;20210;-42
2022/01/21 05:54:13;;;;;;;7.20;1.60;;;1.10;99.90;;;;;;5043298;28;20211;-40
2022/01/21 05:57:06;;;;;;;7.37;1.77;;;1.10;99.90;;;;;;5046351;28;20229;-40
2022/01/21 05:59:34;;;;;;;9.73;1.50;;;1.10;99.90;;;;;;5042444;28;20194;-43
2022/01/21 06:02:04;;;;;;;8.57;2.07;;;1.10;99.90;;;;;;5044984;28;20705;-41
2022/01/21 06:04:32;;;;;;;5.83;0.73;;;1.10;99.90;;;;;;5040284;28;20553;-41
2022/01/21 06:07:00;;;;;;;11.00;1.57;;;1.20;99.90;;;;;;5040860;28;20205;-41
2022/01/21 06:09:26;;;;;;;9.37;1.50;;;1.20;99.90;;;;;;5052884;28;20296;-41
2022/01/21 06:11:54;;;;;;;11.90;1.90;;;1.20;99.90;;;;;;5044265;28;20224;-43
2022/01/21 06:14:24;;;;;;;6.20;1.60;;;1.20;99.90;;;;;;5042496;28;20218;-41
2022/01/21 06:16:52;;;;;;;7.10;1.10;;;1.10;99.90;;;;;;5046270;28;20261;-40
2022/01/21 06:19:19;;;;;;;7.90;2.00;;;1.10;99.90;;;;;;5061339;28;20209;-40
2022/01/21 06:21:46;;;;;;;7.07;2.00;;;1.10;99.90;;;;;;5061721;28;20193;-40
2022/01/21 06:24:13;;;;;;;10.43;1.10;;;1.10;99.90;;;;;;5038123;28;20214;-43
2022/01/21 06:26:40;;;;;;;5.37;1.57;;;1.10;99.90;;;;;;5046199;28;20218;-45
2022/01/21 06:29:07;;;;;;;2.93;1.10;;;1.00;99.90;;;;;;5054098;28;20674;-43
2022/01/21 06:31:35;;;;;;;6.53;1.67;;;1.00;99.90;;;;;;5042440;28;20206;-44
2022/01/21 06:34:01;;;;;;;13.50;1.63;;;1.00;99.90;;;;;;5050224;28;20816;-43
2022/01/21 06:36:29;;;;;;;7.43;1.03;;;1.00;99.90;;;;;;5042388;28;20479;-45
2022/01/21 06:38:56;;;;;;;6.87;1.37;;;1.00;99.90;;;;;;5038704;28;20558;-40
2022/01/21 06:41:23;;;;;;;8.87;1.50;;;1.00;99.90;;;;;;5045043;28;20277;-41
2022/01/21 06:43:50;;;;;;;2.43;0.90;;;1.00;99.90;;;;;;5048411;28;20205;-40
2022/01/21 06:46:17;;;;;;;7.00;1.57;;;0.90;99.90;;;;;;5035681;28;20312;-45
2022/01/21 06:48:45;;;;;;;5.07;1.27;;;0.90;99.90;;;;;;5040981;28;20201;-40
2022/01/21 06:51:12;;;;;;;7.17;1.40;;;0.90;99.90;;;;;;5047190;28;20205;-41
2022/01/21 06:53:39;;;;;;;6.90;1.37;;;0.90;99.90;;;;;;5038407;28;20206;-40
2022/01/21 06:56:05;;;;;;;7.13;1.43;;;0.90;99.90;;;;;;5049136;28;20358;-46
2022/01/21 06:58:32;;;;;;;3.57;1.47;;;0.90;99.90;;;;;;5050390;28;20202;-40
2022/01/21 07:01:00;;;;;;;3.57;0.80;;;0.90;99.90;;;;;;5045467;28;20206;-42
2022/01/21 07:03:26;;;;;;;8.13;1.30;;;0.80;99.90;;;;;;5048681;28;20212;-40
2022/01/21 07:05:54;;;;;;;6.07;1.23;;;0.80;99.90;;;;;;5043344;28;20275;-43
2022/01/21 07:08:21;;;;;;;6.83;1.70;;;0.80;99.90;;;;;;5047597;28;20198;-45
2022/01/21 07:10:48;;;;;;;6.50;1.40;;;0.80;99.90;;;;;;5036053;28;20722;-40
2022/01/21 07:13:15;;;;;;;3.43;1.03;;;0.80;99.90;;;;;;5052822;28;20582;-41
2022/01/21 07:15:41;;;;;;;7.47;1.53;;;0.80;99.90;;;;;;5040025;28;20713;-41
2022/01/21 07:18:09;;;;;;;5.93;1.13;;;0.80;99.90;;;;;;5054113;28;20205;-41
2022/01/21 07:20:35;;;;;;;3.97;1.40;;;0.80;99.90;;;;;;5047170;28;20206;-44
2022/01/21 07:23:04;;;;;;;11.03;1.40;;;0.80;99.90;;;;;;5045528;28;20667;-41
2022/01/21 07:25:33;;;;;;;6.00;0.93;;;0.80;99.90;;;;;;5038865;28;20229;-40
2022/01/21 07:27:59;;;;;;;4.87;1.73;;;0.70;99.90;;;;;;5050699;28;20213;-41
2022/01/21 07:30:26;;;;;;;3.57;1.23;;;0.70;99.90;;;;;;5047233;28;20198;-41
2022/01/21 07:32:52;;;;;;;7.03;0.97;;;0.70;99.90;;;;;;5049383;28;20209;-42
2022/01/21 07:35:20;;;;;;;5.60;0.90;;;0.70;99.90;;;;;;5052480;28;20225;-41
2022/01/21 07:37:46;;;;;;;2.93;0.80;;;0.70;99.90;;;;;;5047863;28;20202;-42
2022/01/21 07:40:15;;;;;;;7.50;3.10;;;0.70;99.90;;;;;;5035498;28;20220;-41
2022/01/21 07:42:42;;;;;;;3.20;0.70;;;0.70;99.90;;;;;;5052939;28;20231;-41
2022/01/21 07:45:10;;;;;;;6.23;1.10;;;0.60;99.90;;;;;;5053721;28;20210;-40
2022/01/21 07:47:37;;;;;;;2.60;0.90;;;0.60;99.90;;;;;;5047588;28;20205;-41
2022/01/21 07:50:04;;;;;;;8.63;1.43;;;0.60;99.90;;;;;;5048631;28;20932;-41
2022/01/21 07:52:31;;;;;;;4.90;0.80;;;0.60;99.90;;;;;;5048217;28;20198;-40
2022/01/21 07:54:58;;;;;;;2.93;1.23;;;0.60;99.90;;;;;;5044600;28;20279;-42
2022/01/21 07:57:26;;;;;;;6.90;1.20;;;0.60;99.90;;;;;;5034857;28;20267;-41
2022/01/21 07:59:52;;;;;;;5.10;1.83;;;0.60;99.90;;;;;;5048448;28;20186;-44
2022/01/21 08:02:19;;;;;;;4.97;1.10;;;0.60;99.90;;;;;;5046279;28;20678;-42
2022/01/21 08:04:46;;;;;;;5.63;1.37;;;0.60;99.90;;;;;;5048334;28;20694;-42
2022/01/21 08:07:13;;;;;;;4.23;0.90;;;0.70;99.90;;;;;;5051631;28;20193;-42
2022/01/21 08:09:40;;;;;;;2.70;0.70;;;0.70;99.90;;;;;;5052667;28;20532;-41
2022/01/21 08:12:08;;;;;;;4.00;1.23;;;0.70;99.90;;;;;;5043172;28;20606;-43
2022/01/21 08:14:36;;;;;;;8.20;1.10;;;0.80;99.90;;;;;;5050518;28;20221;-40
2022/01/21 08:17:03;;;;;;;8.67;2.00;;;0.80;99.90;;;;;;5055344;28;20409;-41
2022/01/21 08:19:30;;;;;;;4.73;1.13;;;0.80;99.90;;;;;;5050281;28;20262;-41
2022/01/21 08:21:56;;;;;;;5.87;1.33;;;0.80;99.90;;;;;;5055329;28;20952;-42
2022/01/21 08:24:23;;;;;;;4.10;0.90;;;0.80;99.90;;;;;;5039551;28;20197;-42
2022/01/21 08:26:50;;;;;;;4.73;0.70;;;0.80;99.90;;;;;;5035453;28;20219;-44
2022/01/21 08:29:16;;;;;;;5.23;1.10;;;0.80;99.90;;;;;;5040248;28;20213;-40
2022/01/21 08:31:45;;;;;;;4.37;0.70;;;0.80;99.90;;;;;;5049174;28;20736;-40
2022/01/21 08:34:12;;;;;;;5.83;0.70;;;0.80;99.90;;;;;;5047907;28;20202;-41
2022/01/21 08:36:39;;;;;;;3.63;0.93;;;0.90;99.90;;;;;;5050967;28;20249;-40
2022/01/21 08:39:07;;;;;;;6.43;1.13;;;1.00;99.90;;;;;;5043464;28;20210;-40
2022/01/21 08:41:34;;;;;;;3.07;0.80;;;1.20;99.90;;;;;;5042546;28;20472;-41
2022/01/21 08:44:01;;;;;;;2.30;0.83;;;1.30;99.90;;;;;;5042803;28;20221;-44
2022/01/21 08:46:28;;;;;;;7.60;1.40;;;1.30;99.90;;;;;;5043814;28;20319;-45
2022/01/21 08:48:56;;;;;;;6.23;1.00;;;1.40;99.90;;;;;;5053289;28;20208;-45
2022/01/21 08:51:26;;;;;;;10.80;1.00;;;1.40;99.90;;;;;;5045699;28;20654;-43
2022/01/21 08:53:54;;;;;;;3.70;1.10;;;1.40;99.90;;;;;;5047959;28;20702;-45
2022/01/21 08:56:21;;;;;;;5.27;1.03;;;1.40;99.90;;;;;;5052928;28;20218;-42
2022/01/21 08:58:49;;;;;;;7.43;1.00;;;1.50;99.90;;;;;;5038182;28;20217;-42
2022/01/21 09:01:17;;;;;;;6.23;0.70;;;1.50;99.90;;;;;;5036080;28;20222;-47
2022/01/21 09:03:44;;;;;;;5.20;0.90;;;1.50;99.90;;;;;;5054871;28;20209;-44
2022/01/21 09:06:16;;;;;;;5.23;0.90;;;1.60;99.90;;;;;;5039960;28;20237;-43
2022/01/21 09:08:45;;;;;;;4.37;0.93;;;1.60;99.90;;;;;;5048318;28;20201;-41
2022/01/21 09:11:13;;;;;;;6.23;0.87;;;1.60;99.90;;;;;;5055794;28;20206;-43
2022/01/21 09:13:41;;;;;;;3.30;1.10;;;1.70;99.90;;;;;;5053917;28;20198;-40
2022/01/21 09:16:09;;;;;;;1.33;0.60;;;1.70;99.90;;;;;;5037799;28;20702;-41
2022/01/21 09:18:46;;;;;;;1.87;0.87;;;1.80;99.90;;;;;;5054613;28;20958;-43
2022/01/21 09:21:15;;;;;;;6.23;0.90;;;1.80;99.90;;;;;;5042006;28;20217;-41
2022/01/21 09:23:42;;;;;;;4.37;1.50;;;1.90;99.90;;;;;;5054667;28;20207;-43
2022/01/21 09:26:10;;;;;;;3.23;0.93;;;2.00;99.90;;;;;;5049116;28;20244;-41
2022/01/21 09:28:36;;;;;;;3.40;0.70;;;2.00;99.90;;;;;;5050834;28;20777;-44
2022/01/21 09:31:04;;;;;;;3.17;0.90;;;2.10;99.90;;;;;;5041745;28;20246;-41
2022/01/21 09:33:30;;;;;;;3.00;0.87;;;2.10;99.90;;;;;;5052315;28;20194;-41
2022/01/21 09:35:57;;;;;;;5.67;0.67;;;2.20;99.90;;;;;;5043625;28;20225;-41
2022/01/21 09:38:26;;;;;;;3.73;0.70;;;2.20;99.90;;;;;;5038191;28;20207;-43
2022/01/21 09:40:54;;;;;;;2.83;0.77;;;2.30;99.90;;;;;;5047397;28;20217;-44
2022/01/21 09:43:22;;;;;;;6.00;0.97;;;2.30;99.90;;;;;;5039779;28;20218;-41
2022/01/21 09:45:53;;;;;;;5.07;1.00;;;2.40;99.90;;;;;;5042242;28;20219;-44
2022/01/21 09:48:23;;;;;;;3.03;0.80;;;2.40;99.90;;;;;;5035572;28;20215;-40
2022/01/21 09:50:52;;;;;;;2.37;0.80;;;2.50;99.90;;;;;;5034205;28;20679;-41
2022/01/21 09:53:25;;;;;;;6.63;1.20;;;2.60;99.90;;;;;;5043589;28;20194;-42
2022/01/21 09:55:53;;;;;;;3.47;0.60;;;2.70;99.90;;;;;;5053128;28;20211;-41
2022/01/21 09:58:20;;;;;;;2.60;0.60;;;2.70;99.90;;;;;;5041594;28;20195;-42
2022/01/21 10:00:47;;;;;;;1.17;0.60;;;2.70;99.90;;;;;;5056775;28;20670;-41
2022/01/21 10:03:15;;;;;;;1.67;0.70;;;2.80;99.90;;;;;;5033524;28;20218;-43
2022/01/21 10:05:46;;;;;;;7.23;0.93;;;2.80;99.90;;;;;;5046352;28;20329;-44
2022/01/21 10:08:14;;;;;;;2.37;0.70;;;2.80;99.90;;;;;;5040506;28;20272;-43
2022/01/21 10:10:42;;;;;;;4.37;0.80;;;2.90;99.90;;;;;;5048467;28;20286;-41
2022/01/21 10:13:10;;;;;;;3.33;0.70;;;2.90;99.90;;;;;;5047709;28;20306;-43
2022/01/21 10:15:38;;;;;;;1.37;0.60;;;3.00;99.90;;;;;;5048392;28;20226;-41
2022/01/21 10:18:07;;;;;;;4.10;0.87;;;3.00;99.90;;;;;;5041588;28;20222;-43
2022/01/21 10:20:34;;;;;;;4.40;0.50;;;3.00;99.90;;;;;;5051440;28;20281;-42
2022/01/21 10:23:03;;;;;;;3.53;0.80;;;3.10;99.90;;;;;;5041729;28;20226;-42
2022/01/21 10:25:31;;;;;;;4.00;1.13;;;3.20;99.90;;;;;;5039788;28;20210;-42
2022/01/21 10:28:13;;;;;;;3.43;1.10;;;3.20;99.90;;;;;;5050185;28;20220;-41
2022/01/21 10:30:42;;;;;;;3.77;0.73;;;3.20;99.90;;;;;;5054737;28;20203;-43
2022/01/21 10:33:23;;;;;;;3.97;0.80;;;3.20;99.90;;;;;;5033499;28;20295;-42
2022/01/21 10:35:51;;;;;;;2.70;1.10;;;3.30;99.90;;;;;;5051042;28;20210;-41
2022/01/21 10:38:22;;;;;;;2.00;0.60;;;3.40;99.90;;;;;;5037231;28;20695;-41
2022/01/21 10:40:49;;;;;;;4.67;1.00;;;3.40;99.90;;;;;;5046096;28;20207;-42
2022/01/21 10:43:19;;;;;;;6.90;1.07;;;3.40;99.90;;;;;;5046928;28;20221;-42
2022/01/21 10:45:50;;;;;;;6.20;1.00;;;3.50;99.90;;;;;;5046420;28;20227;-44
2022/01/21 10:48:17;;;;;;;2.03;0.77;;;3.50;99.90;;;;;;5037206;28;20219;-41
2022/01/21 10:50:44;;;;;;;5.93;0.80;;;3.50;99.90;;;;;;5048723;28;20274;-44
2022/01/21 10:53:27;;;;;;;7.87;1.27;;;3.50;99.90;;;;;;5042602;28;20199;-42
2022/01/21 10:55:54;;;;;;;2.00;0.90;;;3.50;99.90;;;;;;5050231;28;20754;-45
2022/01/21 10:58:24;;;;;;;2.67;1.23;;;3.50;99.90;;;;;;5045620;28;20195;-45
2022/01/21 11:00:58;;;;;;;4.10;0.80;;;3.60;99.90;;;;;;5054385;28;20685;-41
2022/01/21 11:03:26;;;;;;;4.03;1.10;;;3.60;99.90;;;;;;5049014;28;20679;-40
2022/01/21 11:06:09;;;;;;;5.83;0.90;;;3.70;99.90;;;;;;5034136;28;20300;-43
2022/01/21 11:08:36;;;;;;;4.13;1.13;;;3.70;99.90;;;;;;5032442;28;23164;-43
2022/01/21 11:11:03;;;;;;;3.13;1.20;;;3.70;99.90;;;;;;5050930;28;20209;-41
2022/01/21 11:13:34;;;;;;;5.17;1.80;;;3.80;99.90;;;;;;5042028;28;20202;-44
2022/01/21 11:16:06;;;;;;;8.17;1.40;;;3.80;99.90;;;;;;5048232;28;20215;-44
2022/01/21 11:18:33;;;;;;;4.53;1.10;;;3.80;99.90;;;;;;5039622;28;20210;-40
2022/01/21 11:21:05;;;;;;;5.73;1.63;;;3.90;99.90;;;;;;5041951;28;20211;-42
2022/01/21 11:23:34;;;;;;;4.97;1.37;;;3.90;99.90;;;;;;5044658;28;20256;-41
2022/01/21 11:26:03;;;;;;;3.60;1.13;;;4.00;99.90;;;;;;5048857;28;20276;-45
2022/01/21 11:28:39;;;;;;;6.50;1.30;;;4.00;99.90;;;;;;5041201;28;20210;-42
2022/01/21 11:31:08;;;;;;;6.77;1.13;;;4.00;99.90;;;;;;5045805;28;20222;-42
2022/01/21 11:33:35;;;;;;;8.03;1.17;;;4.00;99.90;;;;;;5037073;28;20199;-44
2022/01/21 11:36:04;;;;;;;4.70;1.40;;;4.10;99.90;;;;;;5038959;28;20230;-43
2022/01/21 11:38:36;;;;;;;4.07;1.40;;;4.20;99.90;;;;;;5048198;28;20273;-44
2022/01/21 11:41:04;;;;;;;4.57;1.23;;;4.20;99.90;;;;;;5054625;28;20294;-43
2022/01/21 11:43:33;;;;;;;4.83;1.30;;;4.30;99.90;;;;;;5050143;28;20209;-41
2022/01/21 11:46:26;;;;;;;4.60;1.40;;;4.30;99.90;;;;;;5044813;28;20303;-41
2022/01/21 11:48:54;;;;;;;4.03;1.17;;;4.40;99.90;;;;;;5053081;28;20202;-42
2022/01/21 11:51:23;;;;;;;6.83;1.77;;;4.40;99.90;;;;;;5037367;28;20850;-43
2022/01/21 11:53:52;;;;;;;8.57;1.60;;;4.30;99.90;;;;;;5052310;28;20209;-40
2022/01/21 11:56:38;;;;;;;5.63;1.57;;;4.30;99.90;;;;;;5044398;28;20218;-44
2022/01/21 11:59:09;;;;;;;5.47;1.40;;;4.30;99.90;;;;;;5041764;28;20287;-43
2022/01/21 12:01:46;;;;;;;3.00;1.20;;;4.30;99.90;;;;;;5033891;28;20215;-40
2022/01/21 12:04:13;;;;;;;6.50;1.50;;;4.30;99.90;;;;;;5045963;28;20601;-42
2022/01/21 12:06:39;;;;;;;4.73;1.20;;;4.40;99.90;;;;;;5039628;28;20288;-43
2022/01/21 12:09:08;;;;;;;10.73;1.70;;;4.40;99.90;;;;;;5043227;28;20199;-44
2022/01/21 12:11:37;;;;;;;9.07;2.07;;;4.40;99.90;;;;;;5048061;28;20229;-43
2022/01/21 12:14:29;;;;;;;7.70;1.53;;;4.50;99.90;;;;;;5043833;28;20224;-40
2022/01/21 12:17:10;;;;;;;7.97;1.53;;;4.50;99.90;;;;;;5042132;28;20225;-40
2022/01/21 12:19:37;;;;;;;6.23;1.53;;;4.50;99.90;;;;;;5037060;28;20435;-40
2022/01/21 12:22:15;;;;;;;3.97;1.03;;;4.50;99.90;;;;;;5036727;28;20298;-42
2022/01/21 12:24:51;;;;;;;9.90;1.43;;;4.60;99.90;;;;;;5047115;28;20217;-41
2022/01/21 12:27:20;;;;;;;4.27;1.37;;;4.60;99.90;;;;;;5047795;28;20203;-43
2022/01/21 12:29:46;;;;;;;8.23;2.10;;;4.60;99.90;;;;;;5044484;28;20202;-40
2022/01/21 12:32:34;;;;;;;6.20;1.80;;;4.60;99.90;;;;;;5042127;28;20209;-40
2022/01/21 12:35:31;;;;;;;8.17;1.57;;;4.60;99.90;;;;;;5040800;28;20234;-41
2022/01/21 12:41:31;;;;;;;5.30;1.37;;;4.60;99.90;;;;;;5046920;28;20229;-41
2022/01/21 12:43:59;;;;;;;6.23;1.57;;;4.70;99.90;;;;;;5048786;28;20317;-41
2022/01/21 12:46:33;;;;;;;5.90;1.10;;;4.70;99.90;;;;;;5043665;28;20218;-44
2022/01/21 12:49:23;;;;;;;9.63;1.33;;;4.70;99.90;;;;;;5046464;28;20274;-41
2022/01/21 12:52:25;;;;;;;9.00;1.67;;;4.70;99.90;;;;;;5052441;28;20234;-41
2022/01/21 12:57:36;;;;;;;11.57;1.93;;;4.80;99.90;;;;;;5049703;28;20392;-42
2022/01/21 13:00:08;;;;;;;10.10;1.80;;;4.80;99.90;;;;;;5055690;28;20191;-41
2022/01/21 13:02:37;;;;;;;6.83;1.63;;;4.80;99.90;;;;;;5044514;28;20924;-45
2022/01/21 13:05:13;;;;;;;15.40;1.90;;;4.90;99.90;;;;;;5043589;28;20227;-41
2022/01/21 13:07:51;;;;;;;6.53;1.63;;;4.90;99.90;;;;;;5052730;28;20211;-41
2022/01/21 13:10:23;;;;;;;7.33;1.77;;;4.90;99.90;;;;;;5037961;28;20229;-42
2022/01/21 13:13:01;;;;;;;6.23;1.23;;;5.00;99.90;;;;;;5048927;28;20197;-41
2022/01/21 13:15:39;;;;;;;7.20;1.53;;;5.00;99.90;;;;;;5040562;28;20715;-43
2022/01/21 13:18:07;;;;;;;8.30;1.80;;;5.00;99.90;;;;;;5039371;28;20428;-41
2022/01/21 13:20:38;;;;;;;4.50;1.40;;;5.00;99.90;;;;;;5048800;28;20215;-40
2022/01/21 13:23:06;;;;;;;13.93;1.57;;;5.00;99.90;;;;;;5042822;28;20225;-42
2022/01/21 13:25:33;;;;;;;5.67;1.73;;;5.00;99.90;;;;;;5041316;28;20229;-41
2022/01/21 13:28:02;;;;;;;10.97;1.87;;;5.00;99.90;;;;;;5045356;28;20223;-40
2022/01/21 13:30:31;;;;;;;5.80;1.67;;;5.00;99.90;;;;;;5057458;28;20676;-43
2022/01/21 13:33:00;;;;;;;10.17;1.73;;;5.00;99.90;;;;;;5046816;28;20199;-44
2022/01/21 13:35:27;;;;;;;4.73;0.93;;;5.00;99.90;;;;;;5049764;28;20219;-45
2022/01/21 13:38:07;;;;;;;11.30;1.83;;;5.00;99.90;;;;;;5042856;28;20557;-41
2022/01/21 13:40:37;;;;;;;9.37;1.50;;;5.00;99.90;;;;;;5057523;28;20194;-39
2022/01/21 13:43:12;;;;;;;3.97;0.77;;;5.00;99.90;;;;;;5035483;28;20260;-40
2022/01/21 13:45:40;;;;;;;2.50;1.27;;;5.00;99.90;;;;;;5048195;28;20226;-42
2022/01/21 13:48:09;;;;;;;3.77;1.47;;;5.00;99.90;;;;;;5050420;28;20231;-40
2022/01/21 13:50:42;;;;;;;6.53;1.13;;;5.00;99.90;;;;;;5047115;28;20198;-40
2022/01/21 13:53:11;;;;;;;11.20;1.87;;;5.00;99.90;;;;;;5051597;28;20831;-39
2022/01/21 13:55:41;;;;;;;7.97;1.40;;;5.00;99.90;;;;;;5045627;28;20711;-41